This is the latest recevied weather packets stored in our database for station/object K3MV-13. If no packets are shown the sender has not sent any weather packets the latest 1 day(s).
| Time | Temp. | Humidity | Pressure | Rain* | Wind** | Luminosity | Snow |
|---|---|---|---|---|---|---|---|
| 1778014069 | 21.67° C | 42% | 1009.9 hPa | 0 mm | 1.79 m/s, 195° | 196 W/m² | - |
| 1778013768 | 22.22° C | 40% | 1009.8 hPa | 0 mm | 4.02 m/s, 228° | 191 W/m² | - |
| 1778013464 | 22.22° C | 41% | 1009.9 hPa | 0 mm | 1.34 m/s, 319° | 199 W/m² | - |
| 1778013161 | 22.78° C | 40% | 1009.8 hPa | 0 mm | 3.13 m/s, 201° | 184 W/m² | - |
| 1778012857 | 22.78° C | 40% | 1009.7 hPa | 0 mm | 1.79 m/s, 221° | 175 W/m² | - |
| 1778012553 | 23.33° C | 40% | 1009.5 hPa | 0 mm | 0.89 m/s, 242° | 172 W/m² | - |
| 1778012250 | 23.33° C | 42% | 1009.7 hPa | 0 mm | 1.79 m/s, 300° | 166 W/m² | - |
| 1778011948 | 22.78° C | 43% | 1009.6 hPa | 0 mm | 0.89 m/s, 246° | 178 W/m² | - |
| 1778011646 | 22.78° C | 41% | 1009.8 hPa | 0 mm | 2.68 m/s, 182° | 188 W/m² | - |
| 1778011342 | 22.78° C | 41% | 1009.7 hPa | 0 mm | 1.34 m/s, 225° | 215 W/m² | - |
| 1778011038 | 23.33° C | 40% | 1009.7 hPa | 0 mm | 1.34 m/s, 274° | 180 W/m² | - |
| 1778010736 | 23.33° C | 41% | 1009.5 hPa | 0 mm | 2.68 m/s, 296° | 162 W/m² | - |
| 1778010433 | 22.78° C | 43% | 1009.7 hPa | 0 mm | 1.79 m/s, 227° | 217 W/m² | - |
| 1778010129 | 23.33° C | 41% | 1009.8 hPa | 0 mm | 2.24 m/s, 236° | 217 W/m² | - |
| 1778009825 | 23.89° C | 40% | 1009.7 hPa | 0 mm | 1.34 m/s, 199° | 201 W/m² | - |
| 1778009522 | 22.78° C | 44% | 1009.7 hPa | 0 mm | 1.79 m/s, 199° | 370 W/m² | - |
| 1778009221 | 23.33° C | 43% | 1009.8 hPa | 0 mm | 1.34 m/s, 197° | 191 W/m² | - |
| 1778008918 | 22.78° C | 43% | 1009.8 hPa | 0 mm | 2.24 m/s, 152° | 237 W/m² | - |
| 1778008616 | 22.78° C | 43% | 1009.9 hPa | 0 mm | 2.68 m/s, 221° | 243 W/m² | - |
| 1778008314 | 22.78° C | 43% | 1009.8 hPa | 0 mm | 3.58 m/s, 240° | 201 W/m² | - |
| 1778008010 | 22.78° C | 44% | 1009.9 hPa | 0 mm | 1.79 m/s, 201° | 214 W/m² | - |
| 1778007709 | 23.89° C | 42% | 1010 hPa | 0 mm | 1.79 m/s, 159° | 206 W/m² | - |
| 1778007406 | 23.33° C | 42% | 1009.7 hPa | 0 mm | 1.79 m/s, 307° | 245 W/m² | - |
| 1778007102 | 23.33° C | 42% | 1009.9 hPa | 0 mm | 1.34 m/s, 251° | 273 W/m² | - |
| 1778006799 | 23.33° C | 42% | 1010.3 hPa | 0 mm | 1.79 m/s, 197° | 251 W/m² | - |
* Rain latest hour (hover to see other rain measurements)
** Current wind speed in m/s (hover to see current wind gust speed)